Decoded Metar for K0CO (BERTHOUD PASS in CO, USA) (IATA:0CO) | Meteo·Mobile Aviation Weather
aviador You're here:

K0CO Decoded Metar

BERTHOUD PASS in CO, USA
Report Time2019-01-23 07:06:00
UTC Time2019-01-23 07:20:04
Flight Rules lifr LIFR
Wind330° at 24 Gusting to 32 kt
W.Rank330° ranks 6
Current wind is above 330° avg. (15.9)
VisibilityN/A
Phenomena:N/A
Clouds:Overcast 002 Hf
Expected CloudBase > 2,400 ft AGL from Temp-Dew spread
Ceiling200 ft
Temp-22°C (ISA -10)
Dew Point-28°C (58% RH)
AAT-34.4°C
QNH1013 hPa
Density Alt12,264 ft
Elevation13,494 ft
Report Wrong Elevation
Raw Report
K0CO 230706Z AUTO 33024G32KT OVC002 M22/M28 A2992 RMK AO2
PWINO=

Extra information for K0CO:More info

Metar Taf Metar & Taf Last 4 Metars F.Rules Stats Wind Profile Meteogram Temp Stats Airport Information Weather charts Add Link Nearby VenuesMetar ALERT Operation Metar Decoded Social comments

AIRNAV info for K0CO